Archival Weather

Chicago O'Hare International

Chicago, Illinois (KORD)

Report from: Saturday, August 6, 2022 6:51 AM CDT
Current time: Friday, August 19, 2022 12:41 AM CDT

Current weather
Weather history
Weather forecast

Temperature23.9°C (75.0°F)
Dew point21.7°C (71.1°F)
Winds 4 kts (2.1 m/s, 4.6 mph) South-Southwest (200°)
Visibility10 mi. (16.1 km)
Clouds Few clouds 25,000 ft. (7,620 m)
Altimeter30.08 in.Hg (1019 mB)
Relative humidity88 %
Density altitude1,202 ft. (366 m)
Sea-level pressure101.8 kPa (1018 mB, 30.06 in.Hg)
Max temp last 6 hours25.0°C (77.0°F)
Min temp last 6 hours23.3°C (73.9°F)
Remarks Automated weather observing station with precipitation discriminator
Pressure rising more quickly
Flight conditions Visual Meteorological Conditions
Raw dataKORD 061151Z 20004KT 10SM FEW250 24/22 A3008 RMK AO2 SLP179 T02390217 10250 20233 53001
An unhandled exception has occurred. See browser dev tools for details. Reload 🗙